sensor_id;sensor_type;location;lat;lon;timestamp;P1;durP1;ratioP1;P2;durP2;ratioP2
17636;SDS011;8937;51.236;6.794;2023-01-10T00:04:54;2.53;;;2.33;;
17636;SDS011;8937;51.236;6.794;2023-01-10T00:13:16;4.90;;;2.90;;
17636;SDS011;8937;51.236;6.794;2023-01-10T00:21:45;3.47;;;3.10;;
17636;SDS011;8937;51.236;6.794;2023-01-10T00:30:07;4.47;;;2.37;;
17636;SDS011;8937;51.236;6.794;2023-01-10T00:38:34;2.10;;;1.90;;
17636;SDS011;8937;51.236;6.794;2023-01-10T00:46:56;3.73;;;1.90;;
17636;SDS011;8937;51.236;6.794;2023-01-10T00:55:19;3.60;;;1.90;;
17636;SDS011;8937;51.236;6.794;2023-01-10T01:03:41;3.43;;;1.93;;
17636;SDS011;8937;51.236;6.794;2023-01-10T01:12:03;3.87;;;2.67;;
17636;SDS011;8937;51.236;6.794;2023-01-10T01:20:25;2.17;;;2.07;;
17636;SDS011;8937;51.236;6.794;2023-01-10T01:28:48;2.30;;;1.80;;
17636;SDS011;8937;51.236;6.794;2023-01-10T01:37:09;2.33;;;1.80;;
17636;SDS011;8937;51.236;6.794;2023-01-10T01:45:38;2.27;;;1.80;;
17636;SDS011;8937;51.236;6.794;2023-01-10T01:54:00;3.97;;;1.70;;
17636;SDS011;8937;51.236;6.794;2023-01-10T02:02:27;2.63;;;1.83;;
17636;SDS011;8937;51.236;6.794;2023-01-10T02:10:51;2.93;;;1.70;;
17636;SDS011;8937;51.236;6.794;2023-01-10T02:19:16;4.57;;;2.00;;
17636;SDS011;8937;51.236;6.794;2023-01-10T02:27:46;3.57;;;1.63;;
17636;SDS011;8937;51.236;6.794;2023-01-10T02:36:18;6.37;;;1.80;;
17636;SDS011;8937;51.236;6.794;2023-01-10T02:44:41;2.23;;;1.77;;
17636;SDS011;8937;51.236;6.794;2023-01-10T02:53:07;1.87;;;1.20;;
17636;SDS011;8937;51.236;6.794;2023-01-10T03:01:32;5.87;;;1.90;;
17636;SDS011;8937;51.236;6.794;2023-01-10T03:10:00;3.70;;;1.53;;
17636;SDS011;8937;51.236;6.794;2023-01-10T03:18:24;4.13;;;2.00;;
17636;SDS011;8937;51.236;6.794;2023-01-10T03:26:51;5.23;;;1.97;;
17636;SDS011;8937;51.236;6.794;2023-01-10T03:35:14;3.40;;;1.47;;
17636;SDS011;8937;51.236;6.794;2023-01-10T03:43:38;3.63;;;1.73;;
17636;SDS011;8937;51.236;6.794;2023-01-10T03:52:17;1.77;;;1.63;;
17636;SDS011;8937;51.236;6.794;2023-01-10T04:00:41;3.50;;;1.63;;
17636;SDS011;8937;51.236;6.794;2023-01-10T04:09:02;5.43;;;2.00;;
17636;SDS011;8937;51.236;6.794;2023-01-10T04:17:25;2.63;;;1.60;;
17636;SDS011;8937;51.236;6.794;2023-01-10T04:25:47;8.73;;;1.77;;
17636;SDS011;8937;51.236;6.794;2023-01-10T04:34:09;3.27;;;1.80;;
17636;SDS011;8937;51.236;6.794;2023-01-10T04:42:31;3.07;;;1.40;;
17636;SDS011;8937;51.236;6.794;2023-01-10T04:50:53;7.27;;;1.57;;
17636;SDS011;8937;51.236;6.794;2023-01-10T04:59:15;2.60;;;1.70;;
17636;SDS011;8937;51.236;6.794;2023-01-10T05:07:37;3.73;;;1.50;;
17636;SDS011;8937;51.236;6.794;2023-01-10T05:15:59;2.70;;;1.43;;
17636;SDS011;8937;51.236;6.794;2023-01-10T05:24:22;4.77;;;1.90;;
17636;SDS011;8937;51.236;6.794;2023-01-10T05:32:43;4.33;;;1.73;;
17636;SDS011;8937;51.236;6.794;2023-01-10T05:41:06;2.97;;;1.37;;
17636;SDS011;8937;51.236;6.794;2023-01-10T05:49:27;7.40;;;1.77;;
17636;SDS011;8937;51.236;6.794;2023-01-10T05:57:50;6.63;;;1.80;;
17636;SDS011;8937;51.236;6.794;2023-01-10T06:06:11;3.90;;;1.53;;
17636;SDS011;8937;51.236;6.794;2023-01-10T06:14:34;6.57;;;2.00;;
17636;SDS011;8937;51.236;6.794;2023-01-10T06:22:55;7.20;;;2.17;;
17636;SDS011;8937;51.236;6.794;2023-01-10T06:31:19;4.53;;;2.50;;
17636;SDS011;8937;51.236;6.794;2023-01-10T06:39:40;6.60;;;2.10;;
17636;SDS011;8937;51.236;6.794;2023-01-10T06:48:03;11.53;;;1.80;;
17636;SDS011;8937;51.236;6.794;2023-01-10T06:56:24;4.67;;;1.80;;
17636;SDS011;8937;51.236;6.794;2023-01-10T07:04:48;9.33;;;2.47;;
17636;SDS011;8937;51.236;6.794;2023-01-10T07:13:09;4.33;;;2.23;;
17636;SDS011;8937;51.236;6.794;2023-01-10T07:21:32;4.20;;;2.07;;
17636;SDS011;8937;51.236;6.794;2023-01-10T07:29:55;6.50;;;2.13;;
17636;SDS011;8937;51.236;6.794;2023-01-10T07:38:18;5.63;;;2.10;;
17636;SDS011;8937;51.236;6.794;2023-01-10T07:46:40;6.80;;;2.10;;
17636;SDS011;8937;51.236;6.794;2023-01-10T07:55:03;4.73;;;2.00;;
17636;SDS011;8937;51.236;6.794;2023-01-10T08:03:24;7.87;;;2.20;;
17636;SDS011;8937;51.236;6.794;2023-01-10T08:11:47;6.87;;;2.33;;
17636;SDS011;8937;51.236;6.794;2023-01-10T08:20:09;7.13;;;2.00;;
17636;SDS011;8937;51.236;6.794;2023-01-10T08:28:32;4.63;;;1.77;;
17636;SDS011;8937;51.236;6.794;2023-01-10T08:36:54;9.43;;;2.53;;
17636;SDS011;8937;51.236;6.794;2023-01-10T08:45:17;9.20;;;2.23;;
17636;SDS011;8937;51.236;6.794;2023-01-10T08:53:38;6.13;;;2.07;;
17636;SDS011;8937;51.236;6.794;2023-01-10T09:02:02;6.70;;;1.90;;
17636;SDS011;8937;51.236;6.794;2023-01-10T09:10:24;4.87;;;2.10;;
17636;SDS011;8937;51.236;6.794;2023-01-10T09:18:47;5.33;;;2.37;;
17636;SDS011;8937;51.236;6.794;2023-01-10T09:27:13;5.67;;;1.90;;
17636;SDS011;8937;51.236;6.794;2023-01-10T09:35:37;10.63;;;2.33;;
17636;SDS011;8937;51.236;6.794;2023-01-10T09:44:01;9.03;;;2.20;;
17636;SDS011;8937;51.236;6.794;2023-01-10T09:52:27;8.47;;;2.00;;
17636;SDS011;8937;51.236;6.794;2023-01-10T10:00:51;4.93;;;1.80;;
17636;SDS011;8937;51.236;6.794;2023-01-10T10:09:16;4.63;;;2.07;;
17636;SDS011;8937;51.236;6.794;2023-01-10T10:17:42;5.67;;;2.30;;
17636;SDS011;8937;51.236;6.794;2023-01-10T10:26:09;7.53;;;2.27;;
17636;SDS011;8937;51.236;6.794;2023-01-10T10:34:34;10.50;;;3.10;;
17636;SDS011;8937;51.236;6.794;2023-01-10T10:43:03;5.57;;;2.20;;
17636;SDS011;8937;51.236;6.794;2023-01-10T10:51:33;7.57;;;2.10;;
17636;SDS011;8937;51.236;6.794;2023-01-10T11:00:04;7.77;;;2.30;;
17636;SDS011;8937;51.236;6.794;2023-01-10T11:08:27;5.53;;;2.00;;
17636;SDS011;8937;51.236;6.794;2023-01-10T11:16:51;3.70;;;1.67;;
17636;SDS011;8937;51.236;6.794;2023-01-10T11:25:12;5.23;;;1.93;;
17636;SDS011;8937;51.236;6.794;2023-01-10T11:33:36;8.97;;;1.93;;
17636;SDS011;8937;51.236;6.794;2023-01-10T11:42:00;6.20;;;1.80;;
17636;SDS011;8937;51.236;6.794;2023-01-10T11:50:40;8.50;;;2.67;;
17636;SDS011;8937;51.236;6.794;2023-01-10T11:59:08;7.13;;;2.40;;
17636;SDS011;8937;51.236;6.794;2023-01-10T12:16:16;10.73;;;2.60;;
17636;SDS011;8937;51.236;6.794;2023-01-10T12:24:38;8.33;;;2.13;;
17636;SDS011;8937;51.236;6.794;2023-01-10T12:33:03;8.90;;;2.10;;
17636;SDS011;8937;51.236;6.794;2023-01-10T12:41:28;10.63;;;2.20;;
17636;SDS011;8937;51.236;6.794;2023-01-10T12:50:14;7.50;;;2.50;;
17636;SDS011;8937;51.236;6.794;2023-01-10T12:58:38;4.93;;;1.57;;
17636;SDS011;8937;51.236;6.794;2023-01-10T13:07:03;12.53;;;2.00;;
17636;SDS011;8937;51.236;6.794;2023-01-10T13:15:26;7.83;;;2.57;;
17636;SDS011;8937;51.236;6.794;2023-01-10T13:23:50;5.07;;;2.30;;
17636;SDS011;8937;51.236;6.794;2023-01-10T13:32:15;6.00;;;2.00;;
17636;SDS011;8937;51.236;6.794;2023-01-10T13:40:41;8.03;;;1.93;;
17636;SDS011;8937;51.236;6.794;2023-01-10T13:58:00;6.07;;;1.70;;
17636;SDS011;8937;51.236;6.794;2023-01-10T14:06:33;5.67;;;1.97;;
17636;SDS011;8937;51.236;6.794;2023-01-10T14:15:03;5.20;;;2.17;;
17636;SDS011;8937;51.236;6.794;2023-01-10T14:23:26;4.27;;;2.10;;
17636;SDS011;8937;51.236;6.794;2023-01-10T14:31:50;3.53;;;1.93;;
17636;SDS011;8937;51.236;6.794;2023-01-10T14:40:16;4.03;;;1.80;;
17636;SDS011;8937;51.236;6.794;2023-01-10T14:48:40;5.67;;;2.13;;
17636;SDS011;8937;51.236;6.794;2023-01-10T14:57:14;6.30;;;2.20;;
17636;SDS011;8937;51.236;6.794;2023-01-10T15:05:44;7.00;;;1.90;;
17636;SDS011;8937;51.236;6.794;2023-01-10T15:14:05;6.33;;;2.10;;
17636;SDS011;8937;51.236;6.794;2023-01-10T15:22:31;6.37;;;1.70;;
17636;SDS011;8937;51.236;6.794;2023-01-10T15:30:53;6.37;;;1.80;;
17636;SDS011;8937;51.236;6.794;2023-01-10T15:39:19;6.07;;;1.70;;
17636;SDS011;8937;51.236;6.794;2023-01-10T15:47:48;5.50;;;2.07;;
17636;SDS011;8937;51.236;6.794;2023-01-10T15:56:13;4.37;;;1.70;;
17636;SDS011;8937;51.236;6.794;2023-01-10T16:04:36;5.23;;;2.13;;
17636;SDS011;8937;51.236;6.794;2023-01-10T16:13:08;7.60;;;1.87;;
17636;SDS011;8937;51.236;6.794;2023-01-10T16:21:51;3.70;;;1.87;;
17636;SDS011;8937;51.236;6.794;2023-01-10T16:30:21;5.30;;;2.60;;
17636;SDS011;8937;51.236;6.794;2023-01-10T16:38:43;8.03;;;1.83;;
17636;SDS011;8937;51.236;6.794;2023-01-10T16:47:07;7.83;;;1.80;;
17636;SDS011;8937;51.236;6.794;2023-01-10T16:55:31;8.57;;;2.10;;
17636;SDS011;8937;51.236;6.794;2023-01-10T17:03:59;6.07;;;2.00;;
17636;SDS011;8937;51.236;6.794;2023-01-10T17:12:21;4.83;;;1.87;;
17636;SDS011;8937;51.236;6.794;2023-01-10T17:20:46;6.30;;;1.70;;
17636;SDS011;8937;51.236;6.794;2023-01-10T17:29:08;1.90;;;1.63;;
17636;SDS011;8937;51.236;6.794;2023-01-10T17:37:31;2.93;;;1.70;;
17636;SDS011;8937;51.236;6.794;2023-01-10T17:45:52;1.77;;;1.10;;
17636;SDS011;8937;51.236;6.794;2023-01-10T17:54:15;3.23;;;1.67;;
17636;SDS011;8937;51.236;6.794;2023-01-10T18:02:37;3.37;;;1.73;;
17636;SDS011;8937;51.236;6.794;2023-01-10T18:11:00;4.77;;;1.77;;
17636;SDS011;8937;51.236;6.794;2023-01-10T18:19:22;3.37;;;1.50;;
17636;SDS011;8937;51.236;6.794;2023-01-10T18:27:45;2.87;;;1.30;;
17636;SDS011;8937;51.236;6.794;2023-01-10T18:36:11;1.83;;;1.40;;
17636;SDS011;8937;51.236;6.794;2023-01-10T18:44:34;1.63;;;1.10;;
17636;SDS011;8937;51.236;6.794;2023-01-10T18:52:56;4.43;;;1.50;;
17636;SDS011;8937;51.236;6.794;2023-01-10T19:01:18;1.73;;;1.57;;
17636;SDS011;8937;51.236;6.794;2023-01-10T19:09:41;1.53;;;1.40;;
17636;SDS011;8937;51.236;6.794;2023-01-10T19:18:03;2.17;;;1.30;;
17636;SDS011;8937;51.236;6.794;2023-01-10T19:26:25;1.93;;;1.43;;
17636;SDS011;8937;51.236;6.794;2023-01-10T19:34:48;3.83;;;1.60;;
17636;SDS011;8937;51.236;6.794;2023-01-10T19:43:09;1.30;;;1.20;;
17636;SDS011;8937;51.236;6.794;2023-01-10T19:51:32;3.03;;;1.30;;
17636;SDS011;8937;51.236;6.794;2023-01-10T19:59:54;2.53;;;1.33;;
17636;SDS011;8937;51.236;6.794;2023-01-10T20:08:18;1.50;;;1.40;;
17636;SDS011;8937;51.236;6.794;2023-01-10T20:16:42;1.33;;;1.27;;
17636;SDS011;8937;51.236;6.794;2023-01-10T20:25:05;1.10;;;1.10;;
17636;SDS011;8937;51.236;6.794;2023-01-10T20:33:27;1.20;;;1.20;;
17636;SDS011;8937;51.236;6.794;2023-01-10T20:41:50;1.17;;;1.07;;
17636;SDS011;8937;51.236;6.794;2023-01-10T20:50:11;1.00;;;1.00;;
17636;SDS011;8937;51.236;6.794;2023-01-10T20:58:34;1.93;;;0.90;;
17636;SDS011;8937;51.236;6.794;2023-01-10T21:06:56;0.90;;;0.90;;
17636;SDS011;8937;51.236;6.794;2023-01-10T21:15:18;0.87;;;0.87;;
17636;SDS011;8937;51.236;6.794;2023-01-10T21:23:40;0.90;;;0.90;;
17636;SDS011;8937;51.236;6.794;2023-01-10T21:32:03;0.80;;;0.80;;
17636;SDS011;8937;51.236;6.794;2023-01-10T21:40:25;0.73;;;0.73;;
17636;SDS011;8937;51.236;6.794;2023-01-10T21:48:48;1.63;;;1.53;;
17636;SDS011;8937;51.236;6.794;2023-01-10T21:57:09;1.00;;;1.00;;
17636;SDS011;8937;51.236;6.794;2023-01-10T22:05:32;0.70;;;0.70;;
17636;SDS011;8937;51.236;6.794;2023-01-10T22:13:53;1.07;;;1.07;;
17636;SDS011;8937;51.236;6.794;2023-01-10T22:22:17;0.60;;;0.60;;
17636;SDS011;8937;51.236;6.794;2023-01-10T22:30:38;1.67;;;0.77;;
17636;SDS011;8937;51.236;6.794;2023-01-10T22:39:01;0.77;;;0.77;;
17636;SDS011;8937;51.236;6.794;2023-01-10T22:47:23;0.70;;;0.70;;
17636;SDS011;8937;51.236;6.794;2023-01-10T22:55:45;0.80;;;0.80;;
17636;SDS011;8937;51.236;6.794;2023-01-10T23:04:07;0.70;;;0.70;;
17636;SDS011;8937;51.236;6.794;2023-01-10T23:12:29;0.80;;;0.80;;
17636;SDS011;8937;51.236;6.794;2023-01-10T23:20:51;0.80;;;0.70;;
17636;SDS011;8937;51.236;6.794;2023-01-10T23:29:14;0.60;;;0.60;;
17636;SDS011;8937;51.236;6.794;2023-01-10T23:37:35;0.50;;;0.50;;
17636;SDS011;8937;51.236;6.794;2023-01-10T23:45:58;1.00;;;0.90;;
17636;SDS011;8937;51.236;6.794;2023-01-10T23:54:21;0.60;;;0.60;;
